Time;durP1;ratioP1;P1;durP2;ratioP2;P2;SDS_P1;SDS_P2;PMS_P1;PMS_P2;Temp;Humidity;BMP_temperature;BMP_pressure;BME280_temperature;BME280_humidity;BME280_pressure;Samples;Min_cycle;Max_cycle;Signal;HPM_P1;HPM_P2
2022/07/19 08:49:28;;;;;;;8.70;4.47;;;22.80;63.10;;;;;;5083206;27;20378;-88
2022/07/19 08:51:54;;;;;;;10.63;4.68;;;23.70;63.30;;;;;;5030454;28;20049;-89
2022/07/19 08:54:20;;;;;;;10.02;4.30;;;24.80;62.10;;;;;;5041620;28;20029;-87
2022/07/19 08:59:31;;;;;;;10.40;4.20;;;26.60;58.40;;;;;;5079148;28;20036;-86
2022/07/19 09:01:57;;;;;;;8.07;4.18;;;27.70;55.90;;;;;;5063621;28;20051;-85
2022/07/19 09:04:28;;;;;;;9.07;4.32;;;28.30;54.40;;;;;;5080896;28;20071;-87
2022/07/19 09:06:56;;;;;;;7.00;4.25;;;30.10;52.10;;;;;;5075715;28;20669;-83
2022/07/19 09:09:28;;;;;;;9.27;4.05;;;32.60;49.30;;;;;;5064000;28;20503;-86
2022/07/19 09:11:56;;;;;;;7.88;3.92;;;34.80;47.20;;;;;;5093332;28;20072;-84
2022/07/19 09:14:25;;;;;;;10.70;4.30;;;36.60;43.80;;;;;;5109331;28;20051;-86
2022/07/19 09:16:53;;;;;;;7.85;3.83;;;38.10;41.70;;;;;;5087895;28;20268;-87
2022/07/19 09:19:20;;;;;;;11.40;3.80;;;39.00;39.60;;;;;;5078669;28;20424;-87
2022/07/19 09:22:04;;;;;;;6.32;2.83;;;40.00;38.60;;;;;;5088339;28;20124;-59
2022/07/19 09:24:33;;;;;;;8.57;3.30;;;38.20;33.80;;;;;;5098382;28;20063;-59
2022/07/19 09:27:05;;;;;;;7.85;2.85;;;35.80;37.60;;;;;;5089215;28;20048;-59
2022/07/19 09:29:32;;;;;;;6.00;2.97;;;33.70;38.60;;;;;;5098466;28;20040;-58
2022/07/19 09:32:01;;;;;;;5.63;2.72;;;31.90;41.50;;;;;;5096214;28;20081;-59
2022/07/19 09:34:48;;;;;;;9.07;2.80;;;30.50;42.80;;;;;;5096437;28;20594;-56
2022/07/19 09:37:17;;;;;;;6.22;2.88;;;29.40;44.60;;;;;;5096458;28;20052;-57
2022/07/19 09:39:45;;;;;;;6.43;3.20;;;28.40;46.10;;;;;;5098174;28;20040;-57
2022/07/19 09:42:13;;;;;;;5.57;2.90;;;27.60;47.40;;;;;;5095876;28;20066;-57
2022/07/19 09:44:39;;;;;;;7.28;2.83;;;27.00;48.40;;;;;;5097737;28;20507;-57
2022/07/19 09:47:05;;;;;;;6.32;3.28;;;26.50;49.40;;;;;;5096470;28;20053;-57
2022/07/19 09:49:30;;;;;;;6.03;3.15;;;26.10;50.30;;;;;;5088042;28;20051;-58
2022/07/19 09:51:56;;;;;;;9.52;3.20;;;25.70;50.90;;;;;;5093214;28;20071;-57
2022/07/19 09:54:27;;;;;;;7.68;3.20;;;25.40;51.70;;;;;;5095389;28;20043;-56
2022/07/19 09:56:54;;;;;;;7.05;3.42;;;25.10;52.30;;;;;;5097820;28;20048;-57
2022/07/19 09:59:22;;;;;;;7.70;3.10;;;24.90;52.90;;;;;;5088132;28;20033;-58
2022/07/19 10:01:50;;;;;;;6.15;3.10;;;24.80;53.60;;;;;;5082792;28;20033;-57
2022/07/19 10:04:19;;;;;;;9.70;3.35;;;24.60;54.20;;;;;;5083409;28;20086;-58
2022/07/19 10:06:46;;;;;;;8.50;3.38;;;24.40;54.50;;;;;;5081891;28;20064;-57
2022/07/19 10:09:14;;;;;;;6.28;3.03;;;24.30;54.90;;;;;;5082232;28;20036;-57
2022/07/19 10:11:40;;;;;;;6.88;3.30;;;24.30;55.20;;;;;;5082417;28;20076;-58
2022/07/19 10:14:07;;;;;;;10.80;3.33;;;24.20;55.50;;;;;;5081551;28;20047;-62
2022/07/19 10:17:01;;;;;;;9.15;3.17;;;24.20;55.80;;;;;;5079683;28;20029;-58
2022/07/19 10:19:43;;;;;;;5.53;3.05;;;24.10;56.10;;;;;;5081596;28;20496;-58
2022/07/19 10:22:12;;;;;;;6.05;3.00;;;24.10;56.40;;;;;;5083357;28;20037;-57
2022/07/19 10:24:41;;;;;;;6.85;2.85;;;24.00;56.50;;;;;;5064191;28;20528;-58
2022/07/19 10:27:08;;;;;;;5.72;3.10;;;24.00;56.70;;;;;;5082242;28;20074;-58
2022/07/19 10:29:34;;;;;;;6.28;3.05;;;23.90;56.90;;;;;;5063445;28;20048;-58
2022/07/19 10:32:06;;;;;;;6.10;3.10;;;23.90;57.10;;;;;;5063097;28;20041;-58
2022/07/19 10:34:32;;;;;;;6.25;2.80;;;23.90;57.40;;;;;;5081357;28;20048;-58
2022/07/19 10:36:57;;;;;;;6.18;2.88;;;23.90;57.50;;;;;;5073413;28;20080;-58
2022/07/19 10:39:35;;;;;;;5.40;3.05;;;23.80;57.60;;;;;;5074164;28;20052;-58
2022/07/19 10:42:03;;;;;;;5.88;2.88;;;23.80;57.70;;;;;;5065390;28;20045;-58
2022/07/19 10:44:29;;;;;;;6.93;3.17;;;23.80;57.90;;;;;;5069326;28;20089;-58
2022/07/19 10:46:55;;;;;;;5.70;3.00;;;23.80;57.90;;;;;;5082107;28;20124;-57
2022/07/19 10:49:46;;;;;;;6.97;3.15;;;23.70;58.50;;;;;;5083359;28;20041;-58
2022/07/19 10:52:27;;;;;;;6.40;3.00;;;23.70;58.10;;;;;;5073205;28;20041;-58
2022/07/19 10:55:18;;;;;;;6.45;3.10;;;23.70;58.20;;;;;;5080727;28;20124;-58
